Time;durP1;ratioP1;P1;durP2;ratioP2;P2;SDS_P1;SDS_P2;PMS_P1;PMS_P2;Temp;Humidity;BMP_temperature;BMP_pressure;BME280_temperature;BME280_humidity;BME280_pressure;Samples;Min_cycle;Max_cycle;Signal;HPM_P1;HPM_P2
2023/06/15 00:12:37;;;;;;;2.90;2.60;;;21.70;51.60;;;;;;4893150;29;20497;-83
2023/06/15 00:20:28;;;;;;;2.90;2.20;;;21.70;51.70;;;;;;4724189;30;20470;-84
2023/06/15 00:43:00;;;;;;;3.50;3.20;;;21.20;53.70;;;;;;4895213;23;20611;-84
2023/06/15 00:46:52;;;;;;;2.73;2.53;;;21.00;54.20;;;;;;4817447;29;21272;-86
2023/06/15 01:17:29;;;;;;;2.60;2.40;;;20.70;54.80;;;;;;4936230;28;20428;-83
2023/06/15 01:21:08;;;;;;;2.87;2.67;;;20.90;55.00;;;;;;4940496;28;20846;-83
2023/06/15 01:28:32;;;;;;;2.87;2.67;;;21.00;54.50;;;;;;4749719;30;20604;-82
2023/06/15 01:31:42;;;;;;;3.07;2.77;;;20.90;54.80;;;;;;4791661;29;20525;-85
2023/06/15 01:34:26;;;;;;;3.23;2.83;;;20.90;54.50;;;;;;4817281;29;21577;-83
2023/06/15 01:37:26;;;;;;;2.70;2.50;;;20.70;55.10;;;;;;4815748;29;20473;-84
2023/06/15 01:39:57;;;;;;;3.10;2.90;;;20.70;55.50;;;;;;4805554;29;20998;-83
2023/06/15 01:42:35;;;;;;;3.43;3.23;;;20.70;55.40;;;;;;4804167;29;20519;-84
2023/06/15 01:45:22;;;;;;;4.00;2.80;;;20.60;55.30;;;;;;4815181;29;20559;-84
2023/06/15 01:47:54;;;;;;;3.07;2.87;;;20.80;55.30;;;;;;4806312;29;20482;-83
2023/06/15 01:51:02;;;;;;;2.80;2.60;;;20.80;55.20;;;;;;4806496;29;20493;-81
2023/06/15 01:53:41;;;;;;;2.67;2.47;;;20.70;55.50;;;;;;4802361;29;20549;-82
2023/06/15 01:56:30;;;;;;;3.43;2.90;;;20.80;55.10;;;;;;4805998;29;20433;-83
2023/06/15 01:59:11;;;;;;;3.20;3.00;;;21.00;55.10;;;;;;4818880;29;20465;-84
2023/06/15 02:01:54;;;;;;;2.83;2.53;;;21.00;55.00;;;;;;4884423;23;20890;-84
2023/06/15 02:04:37;;;;;;;3.03;2.83;;;20.80;55.70;;;;;;4897590;29;20443;-83
2023/06/15 02:07:18;;;;;;;2.70;2.47;;;20.70;55.50;;;;;;4876764;29;20451;-83
2023/06/15 02:10:06;;;;;;;2.73;2.53;;;20.70;55.60;;;;;;4882924;29;20999;-83
2023/06/15 02:12:49;;;;;;;3.30;3.00;;;20.90;56.00;;;;;;4884915;29;20933;-84
2023/06/15 02:15:33;;;;;;;2.63;2.43;;;20.70;56.10;;;;;;4869613;29;20458;-85
2023/06/15 02:18:30;;;;;;;3.33;3.13;;;20.70;56.20;;;;;;4867046;29;20458;-85
2023/06/15 02:20:57;;;;;;;3.00;2.73;;;20.60;56.10;;;;;;4869681;29;20483;-85
2023/06/15 02:23:42;;;;;;;3.07;2.87;;;20.70;56.40;;;;;;4873363;29;20460;-84
2023/06/15 02:26:28;;;;;;;3.30;3.00;;;20.70;56.40;;;;;;4872795;29;20471;-84
2023/06/15 02:29:00;;;;;;;3.57;2.90;;;20.80;56.40;;;;;;4886832;29;20602;-83
2023/06/15 02:31:42;;;;;;;2.30;2.20;;;20.80;56.40;;;;;;4872932;29;20989;-85
2023/06/15 02:34:16;;;;;;;4.47;3.50;;;20.90;56.50;;;;;;4870362;29;20467;-84
2023/06/15 02:37:08;;;;;;;2.87;2.67;;;20.90;56.30;;;;;;4849816;29;21174;-85
2023/06/15 02:40:13;;;;;;;3.60;3.30;;;20.80;56.40;;;;;;4839909;29;20867;-83
2023/06/15 02:43:17;;;;;;;3.20;3.00;;;20.70;56.70;;;;;;4851749;29;20461;-86
2023/06/15 02:46:08;;;;;;;3.00;2.80;;;20.60;56.60;;;;;;4845012;29;20454;-85
2023/06/15 02:48:56;;;;;;;2.40;2.30;;;20.70;57.50;;;;;;4858461;29;20545;-83
2023/06/15 02:52:12;;;;;;;3.00;2.80;;;20.70;56.90;;;;;;4929977;23;20513;-83
2023/06/15 02:54:49;;;;;;;2.83;2.53;;;20.70;57.10;;;;;;4898196;29;20451;-83
2023/06/15 02:57:28;;;;;;;2.70;2.50;;;20.80;56.90;;;;;;4906377;29;20470;-84
2023/06/15 03:00:19;;;;;;;2.40;2.23;;;20.80;56.60;;;;;;4905040;29;20498;-83
2023/06/15 03:03:13;;;;;;;2.80;2.60;;;20.70;56.30;;;;;;4894334;29;20492;-84
2023/06/15 03:05:54;;;;;;;2.30;2.20;;;20.70;56.40;;;;;;4897654;29;21116;-85
2023/06/15 03:08:55;;;;;;;3.07;2.20;;;20.80;56.00;;;;;;4899460;29;21160;-85
2023/06/15 03:11:28;;;;;;;2.60;2.40;;;20.80;55.80;;;;;;4893659;29;21136;-83
2023/06/15 03:14:37;;;;;;;2.80;2.43;;;20.70;55.30;;;;;;4892416;29;20461;-82
2023/06/15 03:17:39;;;;;;;2.90;2.70;;;20.60;55.40;;;;;;4899966;29;20450;-81
2023/06/15 03:20:22;;;;;;;4.00;2.70;;;20.50;55.50;;;;;;4896628;29;20553;-84
2023/06/15 03:23:07;;;;;;;4.10;2.83;;;20.50;55.50;;;;;;4888857;29;20573;-82
2023/06/15 03:25:54;;;;;;;3.67;3.03;;;20.50;55.50;;;;;;4896102;29;21573;-83
2023/06/15 03:28:29;;;;;;;2.73;2.53;;;20.50;55.40;;;;;;4910727;29;21162;-83
2023/06/15 03:34:37;;;;;;;3.77;2.63;;;20.30;55.70;;;;;;4926053;29;20454;-84
2023/06/15 03:37:25;;;;;;;3.10;2.80;;;20.30;55.30;;;;;;4920831;28;20469;-83
2023/06/15 03:40:13;;;;;;;3.03;2.83;;;20.50;55.60;;;;;;4898124;28;20451;-85
2023/06/15 03:42:54;;;;;;;3.80;2.80;;;20.50;55.70;;;;;;4920578;29;20473;-84
2023/06/15 03:45:41;;;;;;;2.63;2.37;;;20.50;55.50;;;;;;4914457;29;20489;-85
2023/06/15 03:48:16;;;;;;;3.20;2.70;;;20.50;55.90;;;;;;4915344;29;20455;-84
2023/06/15 03:51:37;;;;;;;3.00;2.80;;;20.50;56.30;;;;;;4914852;29;20494;-84
2023/06/15 03:55:38;;;;;;;3.17;2.87;;;20.40;56.10;;;;;;4847574;29;20506;-84
2023/06/15 03:59:17;;;;;;;2.77;2.50;;;20.30;56.90;;;;;;4808904;29;20495;-82
2023/06/15 04:02:33;;;;;;;;;;;;;;;;;;;;;
2023/06/15 04:05:27;;;;;;;3.20;2.90;;;20.40;57.00;;;;;;4901765;29;20981;-85
2023/06/15 04:08:01;;;;;;;3.00;2.67;;;20.40;56.80;;;;;;4881725;29;21077;-84
2023/06/15 04:10:30;;;;;;;3.53;3.10;;;20.40;56.20;;;;;;4920973;29;20505;-82
2023/06/15 04:12:57;;;;;;;3.63;3.00;;;20.50;56.80;;;;;;4914216;29;20507;-84
2023/06/15 04:15:53;;;;;;;3.10;2.80;;;20.40;57.00;;;;;;4926796;29;20521;-83
2023/06/15 04:18:34;;;;;;;3.63;3.20;;;20.30;56.50;;;;;;4901651;29;20470;-82
2023/06/15 04:21:25;;;;;;;3.50;3.10;;;20.30;57.00;;;;;;4904362;29;20474;-84
2023/06/15 04:24:07;;;;;;;5.07;3.27;;;20.00;57.20;;;;;;4909166;29;20499;-84
2023/06/15 04:27:13;;;;;;;4.77;3.40;;;20.10;58.30;;;;;;4906737;28;20479;-84
2023/06/15 04:30:25;;;;;;;5.90;3.30;;;20.20;58.70;;;;;;4899863;29;20536;-85
2023/06/15 04:33:19;;;;;;;6.33;3.60;;;20.20;59.10;;;;;;4912019;29;20557;-84
2023/06/15 04:36:06;;;;;;;3.20;3.00;;;20.20;59.40;;;;;;4912361;29;20451;-83
2023/06/15 04:42:44;;;;;;;4.10;3.43;;;20.30;60.80;;;;;;4784968;29;20475;-83
2023/06/15 04:45:35;;;;;;;3.90;3.60;;;20.20;63.30;;;;;;4782187;29;20489;-83
2023/06/15 04:48:21;;;;;;;3.97;3.60;;;20.30;64.90;;;;;;4808759;29;20462;-82
2023/06/15 04:51:27;;;;;;;4.20;3.90;;;20.40;65.50;;;;;;4802163;29;20498;-84
2023/06/15 04:54:34;;;;;;;4.00;3.60;;;20.50;66.70;;;;;;4795176;29;22498;-83
2023/06/15 04:57:18;;;;;;;4.93;3.07;;;20.40;66.30;;;;;;4809410;29;20491;-84
2023/06/15 05:00:24;;;;;;;4.10;3.77;;;20.40;63.60;;;;;;4810617;29;20546;-84
2023/06/15 05:03:38;;;;;;;4.00;3.60;;;20.30;62.80;;;;;;4793569;29;20630;-84
2023/06/15 05:13:36;;;;;;;;;;;;;;;;;;;;;
2023/06/15 05:16:55;;;;;;;3.50;3.20;;;20.50;59.00;;;;;;4800869;29;20467;-83
2023/06/15 05:20:05;;;;;;;3.47;3.27;;;20.70;59.20;;;;;;4795324;29;20476;-81
2023/06/15 05:23:07;;;;;;;3.40;3.10;;;20.60;57.60;;;;;;4829644;29;20549;-84
2023/06/15 05:25:54;;;;;;;5.30;3.23;;;20.60;58.60;;;;;;4829930;29;20738;-82
2023/06/15 05:32:44;;;;;;;5.30;3.63;;;20.50;56.90;;;;;;4907726;23;20572;-83
2023/06/15 05:36:10;;;;;;;4.37;4.00;;;20.50;57.70;;;;;;4888367;29;20468;-81
2023/06/15 05:42:03;;;;;;;5.40;3.20;;;20.80;57.30;;;;;;4868736;29;20501;-84
2023/06/15 05:49:36;;;;;;;4.40;4.00;;;20.80;56.90;;;;;;4826400;29;21742;-84
2023/06/15 05:53:12;;;;;;;3.97;3.63;;;21.00;56.50;;;;;;4912375;23;20530;-85
2023/06/15 06:04:15;;;;;;;;;;;;;;;;;;;;;
2023/06/15 06:12:21;;;;;;;;;;;;;;;;;;;;;
2023/06/15 06:15:40;;;;;;;;;;;;;;;;;;;;;
2023/06/15 06:19:00;;;;;;;3.60;3.30;;;21.10;55.40;;;;;;4850116;29;20446;-83
2023/06/15 06:22:13;;;;;;;3.97;3.53;;;21.30;55.00;;;;;;5067844;23;20497;-83
2023/06/15 06:28:39;;;;;;;4.47;4.07;;;21.30;55.60;;;;;;4921049;29;20447;-85
2023/06/15 06:32:05;;;;;;;;;;;;;;;;;;;;;
2023/06/15 06:39:50;;;;;;;5.30;3.43;;;21.60;55.00;;;;;;4767723;29;20479;-83
2023/06/15 06:43:05;;;;;;;4.10;3.60;;;21.40;55.30;;;;;;4810855;29;20477;-82
2023/06/15 06:46:24;;;;;;;;;;;;;;;;;;;;;
2023/06/15 06:49:48;;;;;;;4.50;3.83;;;21.70;55.40;;;;;;4900313;29;20475;-84
2023/06/15 06:53:31;;;;;;;3.40;3.10;;;21.60;56.00;;;;;;4880974;29;20544;-84
2023/06/15 06:56:47;;;;;;;3.90;3.17;;;22.20;54.80;;;;;;4762412;29;20491;-85
2023/06/15 07:00:20;;;;;;;4.00;3.60;;;21.90;54.60;;;;;;4781369;29;20458;-85
2023/06/15 07:04:01;;;;;;;4.33;2.80;;;22.10;54.50;;;;;;4847527;29;20559;-86
2023/06/15 07:07:25;;;;;;;4.90;3.50;;;22.30;55.00;;;;;;4881326;29;20492;-86
2023/06/15 07:10:02;;;;;;;4.87;4.37;;;22.20;54.80;;;;;;4891734;29;20985;-86
2023/06/15 07:13:27;;;;;;;4.10;3.47;;;22.00;54.50;;;;;;4891741;29;20485;-85
2023/06/15 07:20:35;;;;;;;3.37;3.07;;;22.20;54.80;;;;;;4866020;29;20474;-86
2023/06/15 07:24:00;;;;;;;4.33;3.20;;;22.70;53.80;;;;;;4887787;29;20448;-85
2023/06/15 07:35:02;;;;;;;3.87;3.43;;;22.50;54.00;;;;;;4751742;29;20514;-84
2023/06/15 07:45:04;;;;;;;3.77;2.70;;;23.40;52.40;;;;;;4708229;30;20554;-86
2023/06/15 07:48:22;;;;;;;3.73;3.43;;;23.10;53.00;;;;;;4679234;30;20556;-84
2023/06/15 07:51:54;;;;;;;;;;;;;;;;;;;;;
2023/06/15 07:55:41;;;;;;;;;;;;;;;;;;;;;
2023/06/15 08:06:11;;;;;;;3.40;3.10;;;23.90;51.40;;;;;;4646480;30;22065;-83
2023/06/15 08:09:28;;;;;;;3.47;3.20;;;24.00;50.40;;;;;;4697213;30;21074;-84
2023/06/15 08:12:50;;;;;;;3.20;2.90;;;24.20;50.70;;;;;;4701967;30;20949;-84
2023/06/15 08:16:27;;;;;;;3.23;2.90;;;24.00;50.10;;;;;;4833388;29;20459;-85
2023/06/15 08:19:30;;;;;;;3.33;3.03;;;24.10;49.40;;;;;;4823253;29;21095;-86
2023/06/15 08:22:45;;;;;;;3.03;2.77;;;24.50;49.80;;;;;;4821847;29;21037;-83
2023/06/15 08:26:25;;;;;;;3.93;3.43;;;24.60;48.70;;;;;;4821482;29;20469;-85
2023/06/15 08:29:21;;;;;;;3.30;3.00;;;24.70;49.10;;;;;;4839838;29;20477;-84
2023/06/15 08:32:23;;;;;;;;;;;;;;;;;;;;;
2023/06/15 08:34:56;;;;;;;3.97;2.87;;;24.90;47.50;;;;;;4918240;29;20476;-84
2023/06/15 08:38:12;;;;;;;3.27;2.97;;;25.10;47.10;;;;;;4917445;29;20588;-84
2023/06/15 08:41:11;;;;;;;3.20;2.90;;;25.20;47.40;;;;;;4902254;29;20494;-84
2023/06/15 08:47:14;;;;;;;4.93;3.60;;;25.30;46.30;;;;;;4792257;29;20470;-86
2023/06/15 08:50:18;;;;;;;;;;;;;;;;;;;;;
2023/06/15 08:53:11;;;;;;;4.20;3.20;;;25.40;47.70;;;;;;4812983;29;20506;-82
2023/06/15 08:56:21;;;;;;;3.00;2.60;;;26.50;46.30;;;;;;4785437;29;20516;-87
2023/06/15 08:59:40;;;;;;;4.20;3.20;;;27.40;43.60;;;;;;4799772;29;20478;-85
2023/06/15 09:02:34;;;;;;;3.20;3.00;;;27.20;43.30;;;;;;4236448;27;20493;-85
2023/06/15 09:05:22;;;;;;;3.47;3.17;;;26.80;43.80;;;;;;4911315;29;21342;-85
2023/06/15 09:08:09;;;;;;;3.87;3.20;;;26.70;44.00;;;;;;4890450;29;20497;-85
2023/06/15 09:11:18;;;;;;;3.10;2.90;;;26.90;43.50;;;;;;4891548;29;20545;-85
2023/06/15 09:14:04;;;;;;;3.50;3.20;;;26.90;43.60;;;;;;4874982;29;20470;-85
2023/06/15 09:21:37;;;;;;;3.50;3.23;;;28.00;41.80;;;;;;4905488;23;20490;-87
2023/06/15 09:24:44;;;;;;;3.33;3.13;;;28.70;40.90;;;;;;4901310;29;20453;-86
2023/06/15 09:27:27;;;;;;;4.10;3.30;;;28.60;39.60;;;;;;4885059;29;20518;-85
2023/06/15 09:30:20;;;;;;;3.07;2.83;;;29.00;39.60;;;;;;4907433;29;20465;-86
2023/06/15 09:33:20;;;;;;;2.97;2.77;;;28.70;39.70;;;;;;4885075;29;20494;-85
2023/06/15 09:36:23;;;;;;;5.13;3.90;;;29.50;38.60;;;;;;4900070;29;20553;-86
2023/06/15 09:42:55;;;;;;;3.10;2.90;;;29.70;38.50;;;;;;4890410;29;20559;-85
2023/06/15 09:46:33;;;;;;;3.67;3.37;;;30.60;37.10;;;;;;4818661;29;20462;-85
2023/06/15 09:49:32;;;;;;;3.57;3.30;;;29.50;37.20;;;;;;4759129;30;20457;-85
2023/06/15 10:06:20;;;;;;;5.77;3.57;;;26.60;39.50;;;;;;4836020;29;20581;-86
2023/06/15 10:12:41;;;;;;;3.50;2.90;;;26.90;40.50;;;;;;4892544;29;20504;-85
2023/06/15 10:15:51;;;;;;;;;;;;;;;;;;;;;
2023/06/15 10:19:02;;;;;;;3.43;3.10;;;29.20;36.00;;;;;;4911498;29;20538;-84
2023/06/15 10:22:29;;;;;;;2.80;2.60;;;29.70;35.40;;;;;;4888634;29;21035;-84
2023/06/15 10:25:31;;;;;;;2.93;2.73;;;30.60;34.40;;;;;;4864706;29;20456;-84
2023/06/15 10:28:42;;;;;;;3.23;2.93;;;32.20;32.60;;;;;;4887530;29;20466;-83
2023/06/15 10:32:27;;;;;;;2.97;2.77;;;32.30;31.70;;;;;;4888338;29;21092;-86
2023/06/15 10:35:58;;;;;;;3.60;2.43;;;32.80;31.50;;;;;;4889203;29;20474;-84
2023/06/15 10:46:56;;;;;;;3.60;3.03;;;32.20;31.50;;;;;;4824269;29;20480;-85
2023/06/15 11:19:34;;;;;;;3.70;3.00;;;28.50;36.50;;;;;;4812546;29;20473;-84
2023/06/15 11:23:01;;;;;;;3.83;3.50;;;29.10;35.90;;;;;;4787188;29;20494;-85
2023/06/15 11:26:14;;;;;;;4.10;3.17;;;29.80;35.20;;;;;;4790389;29;20453;-84
2023/06/15 11:29:22;;;;;;;2.87;2.67;;;30.20;32.60;;;;;;4788319;29;20447;-84
2023/06/15 11:32:32;;;;;;;3.33;3.07;;;30.80;32.20;;;;;;4793085;29;20668;-83
2023/06/15 11:38:33;;;;;;;3.33;3.10;;;30.80;31.00;;;;;;4762185;30;20516;-82
2023/06/15 11:41:26;;;;;;;3.23;2.90;;;30.50;31.70;;;;;;4738303;30;20478;-83
2023/06/15 11:52:35;;;;;;;3.00;2.70;;;30.80;31.00;;;;;;4714934;30;20609;-84
2023/06/15 12:03:39;;;;;;;2.70;2.50;;;31.20;29.70;;;;;;4716571;30;20594;-86
2023/06/15 12:10:11;;;;;;;3.00;2.80;;;32.00;29.20;;;;;;4733839;30;20624;-85
2023/06/15 12:13:10;;;;;;;2.70;2.50;;;32.40;28.80;;;;;;4737960;30;20497;-85
2023/06/15 12:27:36;;;;;;;3.07;2.77;;;31.20;29.50;;;;;;4791272;29;20482;-85
2023/06/15 12:30:27;;;;;;;3.40;3.10;;;30.60;31.00;;;;;;4775739;29;20523;-84
2023/06/15 12:33:48;;;;;;;;;;;;;;;;;;;;;
2023/06/15 12:40:10;;;;;;;3.90;2.90;;;31.00;29.80;;;;;;4803777;29;20475;-85
2023/06/15 12:43:36;;;;;;;3.57;3.27;;;31.20;28.90;;;;;;4802366;29;20596;-84
2023/06/15 12:46:25;;;;;;;4.13;3.00;;;31.50;29.70;;;;;;4780235;29;20472;-85
2023/06/15 12:49:10;;;;;;;3.17;2.90;;;32.00;28.60;;;;;;4793901;29;20498;-84
2023/06/15 12:52:22;;;;;;;5.17;2.93;;;31.90;28.60;;;;;;4808617;29;20542;-84
2023/06/15 12:55:19;;;;;;;3.20;2.93;;;32.00;28.80;;;;;;4808774;29;20474;-83
2023/06/15 12:58:40;;;;;;;3.40;3.00;;;31.90;29.30;;;;;;4804445;29;20498;-83
2023/06/15 13:01:23;;;;;;;3.83;2.93;;;31.60;29.20;;;;;;4808173;29;20538;-85
2023/06/15 13:04:08;;;;;;;3.83;3.53;;;31.00;29.90;;;;;;4812803;29;20471;-82
2023/06/15 13:11:02;;;;;;;8.90;4.10;;;30.20;30.00;;;;;;4744781;30;20499;-84
2023/06/15 13:14:21;;;;;;;3.53;3.23;;;29.80;30.40;;;;;;4727435;29;20509;-85
2023/06/15 13:17:41;;;;;;;3.13;2.83;;;29.80;30.60;;;;;;4719449;30;21081;-86
2023/06/15 13:20:30;;;;;;;3.37;2.77;;;29.80;30.70;;;;;;4758323;30;20504;-84
2023/06/15 13:24:05;;;;;;;3.67;3.27;;;30.40;30.10;;;;;;4757741;30;20705;-84
2023/06/15 13:31:20;;;;;;;3.90;3.53;;;30.50;29.60;;;;;;4717192;30;20481;-87
2023/06/15 13:39:13;;;;;;;2.97;2.77;;;30.70;30.60;;;;;;4683171;30;20529;-84
2023/06/15 13:42:10;;;;;;;4.00;3.70;;;30.70;30.50;;;;;;4675736;30;20888;-85
2023/06/15 13:45:49;;;;;;;4.00;2.87;;;30.80;30.60;;;;;;4616952;30;20481;-86
2023/06/15 13:48:33;;;;;;;3.47;3.17;;;30.20;31.40;;;;;;4740888;30;20484;-82
2023/06/15 13:55:41;;;;;;;;;;;;;;;;;;;;;
2023/06/15 13:59:10;;;;;;;3.50;3.20;;;29.50;32.00;;;;;;4698108;30;20522;-84
2023/06/15 14:02:22;;;;;;;3.27;2.97;;;29.20;32.70;;;;;;4720959;30;20965;-85
2023/06/15 14:09:39;;;;;;;27.90;25.07;;;29.40;32.90;;;;;;4721235;30;20439;-87
2023/06/15 14:15:46;;;;;;;4.20;3.80;;;29.40;32.40;;;;;;4909621;29;20544;-85
2023/06/15 14:20:02;;;;;;;3.40;3.10;;;29.40;31.50;;;;;;4791531;29;20593;-86
2023/06/15 14:22:50;;;;;;;;;;;;;;;;;;;;;
2023/06/15 14:26:20;;;;;;;3.73;3.30;;;29.30;32.50;;;;;;4874650;29;20449;-83
2023/06/15 14:36:23;;;;;;;3.33;3.03;;;29.40;29.80;;;;;;4825088;29;20424;-85
2023/06/15 14:40:04;;;;;;;3.97;3.63;;;29.40;30.00;;;;;;4826757;29;20478;-85
2023/06/15 14:43:10;;;;;;;3.67;3.30;;;29.30;29.90;;;;;;4826127;29;21166;-84
2023/06/15 14:46:00;;;;;;;3.33;3.03;;;30.10;29.50;;;;;;4819165;29;20447;-86
2023/06/15 14:49:10;;;;;;;3.90;3.60;;;30.00;29.90;;;;;;4799322;29;20566;-85
2023/06/15 14:55:24;;;;;;;3.87;3.27;;;29.90;30.50;;;;;;4877886;29;21604;-85
2023/06/15 14:58:14;;;;;;;;;;;;;;;;;;;;;
2023/06/15 15:05:07;;;;;;;2.43;2.23;;;29.50;29.90;;;;;;4887941;29;20685;-84
2023/06/15 15:08:47;;;;;;;4.87;2.63;;;29.60;29.40;;;;;;4867008;29;20590;-83
2023/06/15 15:17:28;;;;;;;3.97;3.67;;;29.40;30.00;;;;;;4916109;29;20470;-86
2023/06/15 15:20:59;;;;;;;3.13;2.93;;;29.40;30.30;;;;;;4916260;29;20486;-83
2023/06/15 15:24:47;;;;;;;4.33;2.80;;;29.50;29.60;;;;;;4877461;29;20486;-85
2023/06/15 15:31:05;;;;;;;3.33;2.70;;;30.10;28.30;;;;;;4895886;29;20577;-84
2023/06/15 15:37:00;;;;;;;2.83;2.63;;;29.60;28.50;;;;;;4896080;29;20454;-86
2023/06/15 15:44:00;;;;;;;;;;;;;;;;;;;;;
2023/06/15 15:47:24;;;;;;;;;;;;;;;;;;;;;
2023/06/15 15:50:22;;;;;;;4.30;3.40;;;29.60;29.30;;;;;;4904514;29;20482;-86
2023/06/15 15:54:18;;;;;;;3.43;3.13;;;29.50;29.80;;;;;;4899155;29;20482;-84
2023/06/15 15:57:47;;;;;;;;;;;;;;;;;;;;;
2023/06/15 16:01:27;;;;;;;3.33;3.03;;;29.30;29.90;;;;;;4899934;29;21085;-85
2023/06/15 16:04:32;;;;;;;3.77;3.47;;;29.20;29.70;;;;;;4913342;29;20486;-83
2023/06/15 16:07:39;;;;;;;3.93;2.80;;;29.10;29.90;;;;;;4905480;29;20474;-82
2023/06/15 16:10:28;;;;;;;3.13;2.83;;;29.10;29.90;;;;;;4915928;29;20490;-85
2023/06/15 16:13:52;;;;;;;4.33;3.70;;;29.20;29.70;;;;;;4911288;29;21217;-84
2023/06/15 16:16:49;;;;;;;4.70;4.30;;;29.70;29.60;;;;;;4915913;29;20473;-85
2023/06/15 16:19:25;;;;;;;3.40;2.83;;;29.60;29.70;;;;;;4916909;29;20533;-84
2023/06/15 16:22:20;;;;;;;4.00;3.60;;;29.30;29.20;;;;;;4922716;28;20487;-84
2023/06/15 16:28:02;;;;;;;5.50;3.27;;;29.50;29.80;;;;;;4926483;29;20472;-84
2023/06/15 16:31:27;;;;;;;2.90;2.43;;;29.30;29.80;;;;;;4911120;29;20469;-83
2023/06/15 16:40:32;;;;;;;2.97;2.77;;;29.50;30.50;;;;;;4805264;29;20848;-83
2023/06/15 16:43:42;;;;;;;3.17;2.87;;;29.50;29.50;;;;;;4783348;29;20612;-85
2023/06/15 16:47:05;;;;;;;4.07;3.50;;;29.40;30.20;;;;;;4896103;29;20487;-82
2023/06/15 16:50:06;;;;;;;4.27;3.80;;;29.40;29.70;;;;;;4854323;29;20467;-85
2023/06/15 16:53:07;;;;;;;3.73;3.37;;;29.30;30.80;;;;;;4887707;29;20537;-84
2023/06/15 16:59:11;;;;;;;4.57;3.30;;;29.20;31.40;;;;;;4896322;29;20467;-82
2023/06/15 17:01:55;;;;;;;3.23;3.03;;;29.10;31.20;;;;;;4880057;29;20486;-85
2023/06/15 17:05:09;;;;;;;2.53;2.33;;;29.00;31.50;;;;;;4875896;29;20459;-82
2023/06/15 17:08:17;;;;;;;;;;;;;;;;;;;;;
2023/06/15 17:11:19;;;;;;;4.27;3.33;;;29.10;31.50;;;;;;4842804;29;20461;-84
2023/06/15 17:18:18;;;;;;;;;;;;;;;;;;;;;
2023/06/15 17:24:32;;;;;;;3.47;3.17;;;28.40;33.70;;;;;;4933999;28;20556;-83
2023/06/15 17:27:50;;;;;;;3.60;3.30;;;28.40;33.50;;;;;;5107240;23;20517;-85
2023/06/15 17:31:16;;;;;;;3.77;3.27;;;28.40;33.60;;;;;;4927558;29;20550;-86
2023/06/15 17:38:11;;;;;;;2.87;2.67;;;28.60;33.00;;;;;;4852849;29;20428;-85
2023/06/15 17:41:10;;;;;;;3.00;2.70;;;28.60;33.10;;;;;;4840548;29;20554;-85
2023/06/15 17:44:04;;;;;;;3.23;2.93;;;28.60;32.50;;;;;;4908101;29;20498;-84
2023/06/15 17:47:00;;;;;;;2.83;2.63;;;29.10;31.90;;;;;;4911187;29;20509;-85
2023/06/15 17:53:42;;;;;;;;;;;;;;;;;;;;;
2023/06/15 18:00:57;;;;;;;;;;;;;;;;;;;;;
2023/06/15 18:04:03;;;;;;;3.20;3.00;;;28.60;33.70;;;;;;4866494;29;20445;-84
2023/06/15 18:13:39;;;;;;;3.80;3.27;;;28.50;32.90;;;;;;4820403;29;20608;-85
2023/06/15 18:16:44;;;;;;;;;;;;;;;;;;;;;
2023/06/15 18:29:57;;;;;;;3.80;2.63;;;27.80;33.30;;;;;;4921755;29;20632;-85
2023/06/15 18:33:23;;;;;;;3.60;3.30;;;27.70;34.20;;;;;;4814758;29;20513;-84
2023/06/15 18:47:19;;;;;;;3.27;2.97;;;27.70;35.70;;;;;;4720450;30;20532;-85
2023/06/15 18:50:00;;;;;;;3.37;3.07;;;27.80;35.20;;;;;;4794290;29;20476;-85
2023/06/15 18:53:00;;;;;;;4.57;2.80;;;27.80;35.10;;;;;;4829916;29;20454;-85
2023/06/15 18:55:56;;;;;;;3.90;3.07;;;27.80;34.50;;;;;;4826541;29;20473;-84
2023/06/15 18:58:44;;;;;;;3.80;2.97;;;27.60;36.50;;;;;;4801426;29;20452;-83
2023/06/15 19:01:36;;;;;;;3.80;3.30;;;27.50;36.80;;;;;;4792421;29;20517;-85
2023/06/15 19:04:47;;;;;;;3.40;3.10;;;27.40;36.80;;;;;;4777124;29;20440;-84
2023/06/15 19:14:05;;;;;;;6.37;3.53;;;27.00;39.10;;;;;;4995225;23;20482;-85
2023/06/15 19:17:15;;;;;;;4.30;3.07;;;27.00;38.60;;;;;;4917623;28;20458;-84
2023/06/15 19:20:17;;;;;;;4.20;3.80;;;27.00;38.10;;;;;;4916423;29;20525;-84
2023/06/15 19:23:45;;;;;;;;;;;;;;;;;;;;;
2023/06/15 19:26:56;;;;;;;4.10;3.70;;;26.80;38.20;;;;;;4826858;29;21388;-83
2023/06/15 19:32:51;;;;;;;4.00;3.67;;;26.80;38.20;;;;;;4884550;29;20538;-85
2023/06/15 19:35:43;;;;;;;3.33;3.13;;;26.80;39.00;;;;;;4876720;29;20461;-85
2023/06/15 19:38:39;;;;;;;4.47;3.70;;;26.70;38.70;;;;;;4866615;29;20450;-82
2023/06/15 19:41:46;;;;;;;3.90;3.60;;;26.80;39.20;;;;;;4857937;29;20584;-84
2023/06/15 19:44:54;;;;;;;4.33;3.20;;;26.80;39.10;;;;;;4853428;29;20469;-83
2023/06/15 19:50:57;;;;;;;7.43;3.47;;;26.60;39.50;;;;;;4807516;29;20693;-86
2023/06/15 19:53:49;;;;;;;4.40;4.00;;;26.60;39.40;;;;;;4850900;29;20484;-85
2023/06/15 19:57:38;;;;;;;3.43;3.10;;;26.60;39.50;;;;;;4805564;29;20593;-85
2023/06/15 20:03:36;;;;;;;4.40;3.30;;;26.40;39.90;;;;;;4823146;29;20474;-86
2023/06/15 20:06:48;;;;;;;7.40;4.60;;;26.40;39.90;;;;;;4838589;29;20467;-85
2023/06/15 20:09:53;;;;;;;5.27;3.90;;;26.40;40.20;;;;;;4815577;29;20582;-84
2023/06/15 20:12:55;;;;;;;4.57;4.13;;;26.40;40.50;;;;;;4813585;29;20568;-85
2023/06/15 20:16:04;;;;;;;;;;;;;;;;;;;;;
2023/06/15 20:19:15;;;;;;;4.10;3.67;;;26.20;40.60;;;;;;4828160;29;20471;-82
2023/06/15 20:22:25;;;;;;;3.63;3.33;;;26.10;41.10;;;;;;4814393;29;20497;-85
2023/06/15 20:25:38;;;;;;;3.90;3.50;;;26.00;41.00;;;;;;4811816;29;20451;-85
2023/06/15 20:28:32;;;;;;;4.20;3.90;;;26.00;41.20;;;;;;4787591;29;20463;-84
2023/06/15 20:31:32;;;;;;;4.13;3.57;;;25.90;41.60;;;;;;4868279;29;20488;-84
2023/06/15 20:34:56;;;;;;;3.90;3.60;;;25.90;41.90;;;;;;4861101;29;20563;-85
2023/06/15 20:41:06;;;;;;;4.00;3.70;;;25.90;41.10;;;;;;4945108;23;21183;-85
2023/06/15 20:44:08;;;;;;;;;;;;;;;;;;;;;
2023/06/15 20:47:26;;;;;;;;;;;;;;;;;;;;;
2023/06/15 20:50:51;;;;;;;4.60;4.03;;;25.70;41.30;;;;;;4871963;29;20478;-84
2023/06/15 20:54:19;;;;;;;;;;;;;;;;;;;;;
2023/06/15 21:01:23;;;;;;;4.37;4.00;;;25.50;42.10;;;;;;4889469;29;20469;-86
2023/06/15 21:04:27;;;;;;;4.67;4.27;;;25.50;42.30;;;;;;4859698;29;20441;-86
2023/06/15 21:07:08;;;;;;;4.00;3.70;;;25.40;42.40;;;;;;4894303;29;20573;-87
2023/06/15 21:10:06;;;;;;;4.93;4.53;;;25.40;42.50;;;;;;4888971;29;20564;-85
2023/06/15 21:13:10;;;;;;;7.60;6.20;;;25.40;42.60;;;;;;4890712;29;20542;-84
2023/06/15 21:16:39;;;;;;;4.93;4.53;;;25.40;42.40;;;;;;4858904;29;20492;-85
2023/06/15 21:19:53;;;;;;;4.80;4.30;;;25.30;42.50;;;;;;4843788;29;21017;-84
2023/06/15 21:22:58;;;;;;;4.87;4.47;;;25.20;42.80;;;;;;4830256;29;20460;-82
2023/06/15 21:40:52;;;;;;;4.47;3.97;;;25.20;42.90;;;;;;4783300;29;20500;-87
2023/06/15 21:44:35;;;;;;;4.30;3.63;;;25.10;42.50;;;;;;4782784;29;21001;-85
2023/06/15 21:51:33;;;;;;;4.93;4.43;;;25.00;42.70;;;;;;4764192;29;20526;-82
2023/06/15 22:09:40;;;;;;;4.10;3.80;;;24.70;43.60;;;;;;4715615;29;20653;-86
2023/06/15 22:20:37;;;;;;;4.67;4.27;;;24.60;45.20;;;;;;2514883;23;20507;-85
2023/06/15 22:27:19;;;;;;;5.83;5.23;;;24.40;46.30;;;;;;4887120;29;20425;-85
2023/06/15 22:37:15;;;;;;;5.07;4.50;;;24.50;47.80;;;;;;4901388;29;20544;-84
2023/06/15 22:40:23;;;;;;;6.57;4.53;;;24.70;47.30;;;;;;4901607;29;20589;-84
2023/06/15 22:43:59;;;;;;;4.50;4.10;;;24.50;48.40;;;;;;4868413;29;20448;-84
2023/06/15 22:46:46;;;;;;;4.33;4.03;;;24.40;48.30;;;;;;4826191;29;20478;-85
2023/06/15 23:05:48;;;;;;;4.20;3.70;;;23.80;46.60;;;;;;4932187;23;20500;-83
2023/06/15 23:22:51;;;;;;;3.97;3.60;;;23.40;46.80;;;;;;4911833;29;20500;-81
2023/06/15 23:26:08;;;;;;;3.43;3.13;;;23.30;46.60;;;;;;4887078;29;20533;-84
2023/06/15 23:32:30;;;;;;;3.70;3.27;;;23.30;45.20;;;;;;4905623;29;20478;-85
2023/06/15 23:35:34;;;;;;;5.60;4.10;;;23.30;45.00;;;;;;4909205;29;20501;-83
2023/06/15 23:38:21;;;;;;;5.10;3.57;;;23.00;45.40;;;;;;4896441;29;20467;-84
2023/06/15 23:41:35;;;;;;;4.60;3.73;;;22.90;45.80;;;;;;4899350;29;21111;-85
2023/06/15 23:45:09;;;;;;;6.17;3.70;;;22.80;46.20;;;;;;4902295;29;20454;-83
2023/06/15 23:48:02;;;;;;;4.30;3.80;;;22.70;45.90;;;;;;4857277;29;21225;-84
2023/06/15 23:51:08;;;;;;;3.90;3.50;;;22.60;45.70;;;;;;4894107;29;20474;-84
2023/06/15 23:54:28;;;;;;;5.03;4.53;;;22.30;46.20;;;;;;4892512;29;20464;-83
2023/06/15 23:57:50;;;;;;;5.57;4.10;;;22.30;47.40;;;;;;4888543;29;20473;-83
